Time;durP1;ratioP1;P1;durP2;ratioP2;P2;SDS_P1;SDS_P2;PMS_P1;PMS_P2;Temp;Humidity;BMP_temperature;BMP_pressure;BME280_temperature;BME280_humidity;BME280_pressure;Samples;Min_cycle;Max_cycle;Signal;HPM_P1;HPM_P2
2022/10/27 00:01:09;;;;;;;;;;;23.10;60.30;;;;;;6223277;28;20072;-55
2022/10/27 00:04:10;;;;;;;0.30;0.30;;;22.80;60.30;;;;;;6229002;28;20775;-58
2022/10/27 00:07:12;;;;;;;;;;;22.70;60.10;;;;;;6229486;28;20044;-56
2022/10/27 00:10:14;;;;;;;0.50;0.40;;;22.70;60.10;;;;;;6228312;28;20047;-57
2022/10/27 00:13:16;;;;;;;0.60;0.50;;;23.10;60.20;;;;;;6228058;28;20716;-56
2022/10/27 00:16:17;;;;;;;;;;;23.00;59.80;;;;;;6234277;28;20182;-56
2022/10/27 00:19:19;;;;;;;0.40;0.35;;;22.90;60.30;;;;;;6233164;28;20617;-58
2022/10/27 00:22:21;;;;;;;0.60;0.50;;;22.80;60.00;;;;;;6231161;28;20041;-57
2022/10/27 00:25:22;;;;;;;0.50;0.40;;;23.10;59.90;;;;;;6234465;28;22005;-57
2022/10/27 00:28:24;;;;;;;;;;;23.00;59.90;;;;;;6234283;28;20044;-54
2022/10/27 00:31:30;;;;;;;0.35;0.35;;;23.00;59.90;;;;;;6178507;28;19936;-57
2022/10/27 00:34:31;;;;;;;;;;;23.00;59.80;;;;;;6235436;28;20796;-56
2022/10/27 00:37:34;;;;;;;0.70;0.40;;;22.90;59.60;;;;;;6237510;28;20010;-55
2022/10/27 00:40:39;;;;;;;0.52;0.50;;;22.90;59.70;;;;;;6232538;28;20117;-57
2022/10/27 00:43:41;;;;;;;0.63;0.40;;;22.70;59.30;;;;;;6233795;28;20393;-55
2022/10/27 00:46:43;;;;;;;;;;;23.00;59.70;;;;;;6225897;28;20147;-57
2022/10/27 00:49:49;;;;;;;0.40;0.30;;;22.80;59.60;;;;;;6217281;28;20043;-55
2022/10/27 00:52:54;;;;;;;0.75;0.50;;;23.30;59.50;;;;;;6232302;28;20778;-57
2022/10/27 00:55:56;;;;;;;0.30;0.30;;;22.80;59.40;;;;;;6238802;28;20058;-57
2022/10/27 00:58:57;;;;;;;0.52;0.30;;;22.80;59.50;;;;;;6218856;28;20118;-57
2022/10/27 01:01:59;;;;;;;0.57;0.30;;;22.60;59.30;;;;;;6236973;28;20040;-58
2022/10/27 01:05:02;;;;;;;;;;;23.30;59.60;;;;;;6237236;28;20147;-57
2022/10/27 01:08:06;;;;;;;0.32;0.25;;;23.00;59.50;;;;;;6213777;28;20101;-52
2022/10/27 01:11:08;;;;;;;0.50;0.38;;;22.90;59.20;;;;;;6231891;28;20237;-57
2022/10/27 01:14:09;;;;;;;0.30;0.30;;;23.10;59.50;;;;;;6234202;28;20376;-52
2022/10/27 01:17:22;;;;;;;0.45;0.40;;;22.60;59.30;;;;;;6234334;28;20544;-53
2022/10/27 01:20:47;;;;;;;0.73;0.38;;;22.90;59.10;;;;;;6232856;28;20399;-50
2022/10/27 01:24:09;;;;;;;0.45;0.40;;;22.80;59.10;;;;;;6217081;28;20048;-53
2022/10/27 01:27:28;;;;;;;0.40;0.30;;;22.90;59.20;;;;;;6229579;28;20054;-56
2022/10/27 01:30:34;;;;;;;0.40;0.30;;;22.80;59.10;;;;;;6233837;28;20092;-54
2022/10/27 01:33:42;;;;;;;0.95;0.40;;;22.60;58.90;;;;;;6210648;28;20308;-54
2022/10/27 01:36:49;;;;;;;0.52;0.30;;;23.00;59.10;;;;;;6212789;28;20281;-56
2022/10/27 01:39:58;;;;;;;0.60;0.43;;;22.70;73.60;;;;;;6234603;28;20586;-56
2022/10/27 01:43:08;;;;;;;0.45;0.45;;;23.00;59.10;;;;;;6235756;28;20491;-55
2022/10/27 01:46:11;;;;;;;0.40;0.22;;;22.80;59.00;;;;;;6236646;28;20343;-56
2022/10/27 01:49:13;;;;;;;0.63;0.50;;;23.00;59.10;;;;;;6232197;28;20466;-55
2022/10/27 01:52:38;;;;;;;1.05;0.40;;;22.80;59.10;;;;;;6235794;28;20184;-55
2022/10/27 01:55:52;;;;;;;0.55;0.40;;;23.10;59.10;;;;;;6228576;28;20057;-57
2022/10/27 01:59:13;;;;;;;1.00;0.70;;;22.90;59.10;;;;;;6233734;28;20122;-52
2022/10/27 02:02:21;;;;;;;0.70;0.40;;;22.90;59.10;;;;;;6234472;28;20110;-54
2022/10/27 02:05:31;;;;;;;0.88;0.50;;;22.80;58.70;;;;;;6216215;28;20462;-57
2022/10/27 02:08:38;;;;;;;0.35;0.35;;;23.00;59.10;;;;;;6236401;28;20532;-53
2022/10/27 02:11:43;;;;;;;0.47;0.30;;;22.70;59.00;;;;;;6216587;28;20110;-54
2022/10/27 02:14:51;;;;;;;0.70;0.55;;;22.80;59.10;;;;;;6236748;28;20032;-50
2022/10/27 02:17:58;;;;;;;0.47;0.30;;;22.40;58.90;;;;;;6236042;28;20288;-56
2022/10/27 02:21:03;;;;;;;0.63;0.43;;;22.60;59.10;;;;;;6232817;28;20209;-55
2022/10/27 02:24:09;;;;;;;0.43;0.35;;;22.80;59.10;;;;;;6197060;28;20056;-54
2022/10/27 02:27:17;;;;;;;0.65;0.30;;;22.90;59.40;;;;;;6230828;28;20288;-53
2022/10/27 02:30:19;;;;;;;0.40;0.40;;;22.90;59.20;;;;;;6231798;28;20070;-56
2022/10/27 02:33:21;;;;;;;0.47;0.38;;;22.70;59.20;;;;;;6224128;28;20506;-53
2022/10/27 02:36:22;;;;;;;;;;;22.70;59.00;;;;;;6231795;28;20354;-53
2022/10/27 02:39:24;;;;;;;0.52;0.40;;;22.70;59.60;;;;;;6207816;28;20368;-56
2022/10/27 02:42:25;;;;;;;;;;;22.90;59.50;;;;;;6228903;28;20101;-52
2022/10/27 02:45:27;;;;;;;0.38;0.28;;;22.70;59.60;;;;;;6237633;28;19920;-54
2022/10/27 02:48:28;;;;;;;0.50;0.32;;;22.90;59.60;;;;;;6233955;28;20478;-56
2022/10/27 02:51:30;;;;;;;;;;;23.00;59.80;;;;;;6232969;28;20947;-55
2022/10/27 02:54:31;;;;;;;;;;;22.80;59.80;;;;;;6235438;28;19925;-57
2022/10/27 02:57:33;;;;;;;0.20;0.10;;;22.50;59.80;;;;;;6232967;28;20005;-57
2022/10/27 03:00:34;;;;;;;;;;;23.20;59.90;;;;;;6231967;28;20125;-53
2022/10/27 03:03:36;;;;;;;0.50;0.30;;;22.30;59.70;;;;;;6231190;28;20080;-55
2022/10/27 03:06:37;;;;;;;;;;;22.70;59.80;;;;;;6228932;28;20420;-56
2022/10/27 03:09:39;;;;;;;0.55;0.45;;;22.90;60.10;;;;;;6233695;28;20433;-57
2022/10/27 03:12:40;;;;;;;;;;;22.50;59.70;;;;;;6233825;28;20233;-55
2022/10/27 03:15:43;;;;;;;0.45;0.20;;;23.00;60.20;;;;;;6233492;28;19928;-55
2022/10/27 03:18:45;;;;;;;0.60;0.38;;;22.40;59.70;;;;;;6240285;28;20099;-57
2022/10/27 03:21:47;;;;;;;;;;;22.60;60.00;;;;;;6236853;28;20043;-56
2022/10/27 03:24:48;;;;;;;;;;;22.70;60.20;;;;;;6235300;28;19932;-55
2022/10/27 03:27:50;;;;;;;1.00;0.25;;;22.60;60.60;;;;;;6235758;28;20936;-55
2022/10/27 03:30:51;;;;;;;;;;;22.80;60.30;;;;;;6236645;28;20047;-58
2022/10/27 03:33:52;;;;;;;0.77;0.30;;;22.20;60.30;;;;;;6240708;28;19924;-57
2022/10/27 03:36:54;;;;;;;;;;;22.70;60.30;;;;;;6233286;28;20135;-57
2022/10/27 03:39:55;;;;;;;0.38;0.30;;;22.50;60.50;;;;;;6219328;28;19974;-57
2022/10/27 03:42:57;;;;;;;;;;;22.50;60.30;;;;;;6238221;28;20039;-54
2022/10/27 03:45:59;;;;;;;;;;;23.20;61.00;;;;;;6239141;28;19958;-54
2022/10/27 03:49:02;;;;;;;0.98;0.55;;;22.70;60.80;;;;;;6223270;28;19925;-54
2022/10/27 03:52:04;;;;;;;;;;;22.50;60.70;;;;;;6232433;28;20040;-53
2022/10/27 03:55:06;;;;;;;0.77;0.40;;;22.40;60.80;;;;;;6230187;28;19924;-52
2022/10/27 03:58:11;;;;;;;0.50;0.30;;;22.40;60.60;;;;;;6234455;28;20047;-55
2022/10/27 04:01:17;;;;;;;0.40;0.40;;;22.20;60.40;;;;;;6235434;28;20297;-54
2022/10/27 04:04:19;;;;;;;0.50;0.30;;;22.50;60.90;;;;;;6234330;28;20326;-52
2022/10/27 04:07:21;;;;;;;;;;;22.50;60.90;;;;;;6229487;28;20323;-52
2022/10/27 04:10:22;;;;;;;0.30;0.30;;;22.40;61.10;;;;;;6233166;28;19945;-56
2022/10/27 04:13:24;;;;;;;0.60;0.35;;;22.60;60.90;;;;;;6233793;28;20521;-55
2022/10/27 04:16:31;;;;;;;0.40;0.25;;;22.70;61.20;;;;;;6239267;28;20048;-57
2022/10/27 04:19:32;;;;;;;0.57;0.30;;;22.80;61.20;;;;;;6232310;28;21120;-54
2022/10/27 04:22:34;;;;;;;;;;;22.70;61.30;;;;;;6235994;28;20041;-56
2022/10/27 04:25:35;;;;;;;;;;;22.50;61.30;;;;;;6235653;28;20213;-56
2022/10/27 04:28:37;;;;;;;0.73;0.20;;;23.00;61.80;;;;;;6230937;28;20031;-56
2022/10/27 04:31:38;;;;;;;;;;;22.90;61.40;;;;;;6225224;28;20041;-58
2022/10/27 04:34:39;;;;;;;0.30;0.30;;;22.50;61.60;;;;;;6231958;28;19928;-56
2022/10/27 04:37:41;;;;;;;0.45;0.40;;;22.50;61.40;;;;;;6234182;28;20046;-57
2022/10/27 04:40:43;;;;;;;0.70;0.50;;;22.40;61.50;;;;;;6229821;28;20610;-56
2022/10/27 04:43:50;;;;;;;;;;;22.70;61.80;;;;;;6230511;28;20082;-56
2022/10/27 04:46:53;;;;;;;0.73;0.40;;;22.70;61.80;;;;;;6227271;28;19928;-57
2022/10/27 04:49:54;;;;;;;0.40;0.40;;;22.70;62.00;;;;;;6225767;28;20060;-53
2022/10/27 04:52:57;;;;;;;;;;;23.10;62.30;;;;;;6228730;28;20552;-55
2022/10/27 04:55:58;;;;;;;0.70;0.40;;;22.70;62.30;;;;;;6224234;28;20825;-53
2022/10/27 04:59:00;;;;;;;0.60;0.40;;;22.90;62.30;;;;;;6225679;28;20036;-55
2022/10/27 05:02:01;;;;;;;0.43;0.30;;;22.90;62.40;;;;;;6222917;28;20156;-57
2022/10/27 05:05:03;;;;;;;0.38;0.38;;;22.50;62.40;;;;;;6228958;28;20815;-57
2022/10/27 05:08:10;;;;;;;0.70;0.45;;;22.40;62.30;;;;;;6232890;28;20144;-55
2022/10/27 05:11:12;;;;;;;0.40;0.40;;;22.50;62.40;;;;;;6219825;28;20047;-57
2022/10/27 05:14:17;;;;;;;0.57;0.30;;;22.50;62.40;;;;;;6232402;28;20135;-57
2022/10/27 05:17:21;;;;;;;;;;;22.70;62.70;;;;;;6237165;28;20443;-57
2022/10/27 05:20:28;;;;;;;0.52;0.40;;;22.30;62.60;;;;;;6190995;28;20790;-55
2022/10/27 05:23:30;;;;;;;;;;;22.60;62.70;;;;;;6232312;28;20049;-58
2022/10/27 05:26:31;;;;;;;;;;;22.40;62.80;;;;;;6234007;28;20382;-57
2022/10/27 05:29:38;;;;;;;0.50;0.50;;;22.40;62.70;;;;;;6233451;28;20832;-58
2022/10/27 05:32:39;;;;;;;;;;;22.50;62.50;;;;;;6232480;28;20868;-57
2022/10/27 05:35:49;;;;;;;0.93;0.50;;;22.70;62.90;;;;;;6228380;28;19975;-58
2022/10/27 05:38:51;;;;;;;0.47;0.40;;;22.80;62.80;;;;;;6229232;28;20055;-55
2022/10/27 05:41:53;;;;;;;0.63;0.50;;;22.50;62.70;;;;;;6221710;28;20118;-56
2022/10/27 05:44:54;;;;;;;;;;;23.00;62.90;;;;;;6209788;28;20059;-56
2022/10/27 05:47:58;;;;;;;0.40;0.40;;;22.50;62.90;;;;;;6224359;28;19934;-57
2022/10/27 05:50:59;;;;;;;0.43;0.40;;;22.20;62.20;;;;;;6227554;28;20780;-56
2022/10/27 05:54:01;;;;;;;0.88;0.30;;;22.40;62.40;;;;;;6222907;28;20106;-57
2022/10/27 05:57:03;;;;;;;0.50;0.40;;;22.30;62.30;;;;;;6215566;28;20036;-54
2022/10/27 06:00:06;;;;;;;0.60;0.60;;;22.90;62.70;;;;;;6203231;28;20036;-58
2022/10/27 06:03:18;;;;;;;0.60;0.40;;;22.00;62.10;;;;;;6192437;28;21091;-56
2022/10/27 06:06:20;;;;;;;0.35;0.35;;;22.40;62.40;;;;;;6187826;28;20048;-56
2022/10/27 06:09:25;;;;;;;0.80;0.43;;;22.90;62.40;;;;;;6196832;28;20057;-56
2022/10/27 06:12:26;;;;;;;1.40;0.40;;;22.70;62.70;;;;;;6212854;28;20050;-57
2022/10/27 06:15:28;;;;;;;;;;;22.50;62.60;;;;;;6195284;28;20067;-57
2022/10/27 06:18:29;;;;;;;0.77;0.60;;;22.90;62.70;;;;;;6197548;28;19928;-57
2022/10/27 06:21:31;;;;;;;0.98;0.32;;;22.60;62.50;;;;;;6178674;28;20111;-57
2022/10/27 06:24:33;;;;;;;;;;;22.50;62.60;;;;;;6186145;28;20105;-57
2022/10/27 06:27:34;;;;;;;0.80;0.30;;;22.60;62.80;;;;;;6190897;28;19935;-56
2022/10/27 06:30:36;;;;;;;0.40;0.40;;;23.00;62.90;;;;;;6187617;28;20040;-58
2022/10/27 06:33:40;;;;;;;;;;;22.90;62.70;;;;;;6169653;28;21771;-57
2022/10/27 06:36:41;;;;;;;0.68;0.40;;;23.00;62.70;;;;;;6155948;28;21259;-54
2022/10/27 06:39:44;;;;;;;0.93;0.30;;;22.60;77.20;;;;;;6171194;28;20072;-58
2022/10/27 06:42:48;;;;;;;0.55;0.40;;;22.30;62.40;;;;;;6166504;28;20126;-58
2022/10/27 06:46:07;;;;;;;0.98;0.40;;;22.70;62.50;;;;;;6147655;28;20053;-59
2022/10/27 06:49:10;;;;;;;0.68;0.35;;;22.80;62.90;;;;;;6145492;28;20048;-59
2022/10/27 06:52:15;;;;;;;1.65;0.45;;;22.70;62.70;;;;;;6150851;28;21251;-59
2022/10/27 06:55:17;;;;;;;0.40;0.40;;;22.70;63.00;;;;;;6085228;28;20052;-60
2022/10/27 06:58:19;;;;;;;1.83;0.85;;;22.80;62.50;;;;;;6090674;28;21066;-59
2022/10/27 07:01:21;;;;;;;0.60;0.30;;;22.90;63.10;;;;;;6074701;28;20062;-58
2022/10/27 07:04:23;;;;;;;0.93;0.47;;;22.70;62.90;;;;;;6031369;28;20080;-59
2022/10/27 07:07:25;;;;;;;0.93;0.35;;;22.60;63.20;;;;;;6054476;28;20054;-57
2022/10/27 07:10:27;;;;;;;0.75;0.40;;;22.80;63.20;;;;;;6054378;28;22225;-61
2022/10/27 07:13:29;;;;;;;1.10;0.60;;;23.00;63.50;;;;;;6041384;28;20048;-56
2022/10/27 07:16:30;;;;;;;1.08;0.60;;;23.00;63.40;;;;;;6040325;28;20118;-54
2022/10/27 07:19:36;;;;;;;1.38;0.47;;;23.00;63.70;;;;;;6065822;22;20045;-57
2022/10/27 07:22:40;;;;;;;0.60;0.50;;;23.00;63.40;;;;;;5976892;28;20248;-61
2022/10/27 07:25:42;;;;;;;0.98;0.40;;;23.10;63.40;;;;;;5980671;28;21483;-54
2022/10/27 07:28:43;;;;;;;1.13;0.75;;;22.90;62.90;;;;;;6008429;28;21701;-54
2022/10/27 07:31:46;;;;;;;0.60;0.40;;;23.00;63.30;;;;;;5998065;28;20053;-57
2022/10/27 07:34:47;;;;;;;3.30;0.70;;;22.70;63.00;;;;;;6003073;28;20057;-58
2022/10/27 07:37:49;;;;;;;;;;;23.00;63.00;;;;;;6010884;28;20060;-59
2022/10/27 07:40:52;;;;;;;1.52;0.50;;;23.20;63.70;;;;;;6025297;28;19968;-57
2022/10/27 07:43:53;;;;;;;2.22;0.47;;;23.00;63.20;;;;;;6045351;28;21242;-55
2022/10/27 07:46:55;;;;;;;1.27;0.70;;;22.90;63.00;;;;;;6004191;28;20097;-60
2022/10/27 07:49:57;;;;;;;0.70;0.50;;;22.60;63.00;;;;;;6015779;28;20037;-58
2022/10/27 07:52:59;;;;;;;2.08;0.88;;;22.70;62.60;;;;;;6006101;28;20041;-59
2022/10/27 07:56:01;;;;;;;1.13;0.50;;;22.90;62.90;;;;;;6003393;28;20110;-57
2022/10/27 07:59:03;;;;;;;0.93;0.43;;;23.00;62.80;;;;;;6000919;28;20037;-59
2022/10/27 08:02:08;;;;;;;2.15;0.50;;;22.90;62.80;;;;;;6001774;28;20039;-55
2022/10/27 08:05:10;;;;;;;1.17;0.55;;;23.10;62.80;;;;;;5978554;28;20179;-54
2022/10/27 08:08:13;;;;;;;1.25;0.50;;;23.50;63.10;;;;;;5975850;28;20083;-57
2022/10/27 08:11:15;;;;;;;1.15;0.50;;;23.40;62.70;;;;;;5962959;28;21201;-59
2022/10/27 08:14:17;;;;;;;1.00;0.30;;;23.20;62.70;;;;;;5992660;28;20048;-57
2022/10/27 08:17:18;;;;;;;0.70;0.60;;;23.50;62.70;;;;;;5974038;28;20052;-59
2022/10/27 08:20:21;;;;;;;1.13;0.80;;;22.90;62.40;;;;;;5957049;28;21290;-57
2022/10/27 08:23:24;;;;;;;0.75;0.50;;;23.20;62.30;;;;;;5978753;28;20033;-60
2022/10/27 08:26:26;;;;;;;0.40;0.30;;;23.40;62.50;;;;;;5982211;28;20040;-59
2022/10/27 08:29:28;;;;;;;1.30;0.57;;;23.50;62.50;;;;;;5988275;28;23851;-63
2022/10/27 08:32:30;;;;;;;1.60;0.45;;;23.60;63.00;;;;;;5982211;28;20048;-58
2022/10/27 08:35:33;;;;;;;0.80;0.40;;;23.60;62.20;;;;;;5986304;28;20045;-61
2022/10/27 08:38:35;;;;;;;1.50;0.50;;;23.40;62.30;;;;;;5994824;22;20061;-57
2022/10/27 08:41:43;;;;;;;0.50;0.45;;;23.10;61.70;;;;;;5974989;28;20050;-57
2022/10/27 08:44:48;;;;;;;0.73;0.47;;;23.60;61.80;;;;;;5951419;28;21091;-60
2022/10/27 08:47:52;;;;;;;0.60;0.50;;;23.20;61.50;;;;;;5945446;28;20049;-58
2022/10/27 08:50:54;;;;;;;0.73;0.43;;;23.40;61.50;;;;;;5942979;28;20042;-60
2022/10/27 08:53:58;;;;;;;0.93;0.52;;;23.20;61.40;;;;;;5937040;28;22359;-57
2022/10/27 08:57:03;;;;;;;1.17;0.45;;;23.80;61.60;;;;;;5923605;28;20203;-57
2022/10/27 09:00:11;;;;;;;0.80;0.57;;;23.30;61.20;;;;;;5930163;28;20046;-56
2022/10/27 09:03:36;;;;;;;0.80;0.40;;;23.70;61.60;;;;;;5900163;28;20038;-57
2022/10/27 09:06:46;;;;;;;1.35;0.65;;;23.70;61.50;;;;;;5854208;28;20042;-59
2022/10/27 09:09:52;;;;;;;1.13;0.55;;;23.90;61.50;;;;;;5911826;28;20049;-54
2022/10/27 09:13:06;;;;;;;0.70;0.50;;;23.80;61.50;;;;;;5918592;28;20056;-56
2022/10/27 09:16:15;;;;;;;4.40;0.60;;;23.60;61.50;;;;;;5932455;28;20045;-54
2022/10/27 09:19:23;;;;;;;3.42;0.95;;;23.50;61.60;;;;;;5970085;28;20038;-53
2022/10/27 09:22:29;;;;;;;3.65;0.60;;;23.70;61.90;;;;;;5968245;28;20045;-58
2022/10/27 09:25:31;;;;;;;1.23;0.90;;;23.10;61.90;;;;;;5919956;28;20809;-56
2022/10/27 09:28:36;;;;;;;1.98;0.82;;;23.70;62.20;;;;;;5892422;28;20398;-56
2022/10/27 09:31:42;;;;;;;2.53;0.70;;;23.50;62.00;;;;;;5899395;28;20089;-60
2022/10/27 09:34:47;;;;;;;1.23;0.80;;;23.90;62.10;;;;;;5934936;28;22364;-58
2022/10/27 09:37:49;;;;;;;1.50;0.75;;;23.50;61.90;;;;;;5925307;28;20617;-59
2022/10/27 09:40:52;;;;;;;1.30;0.77;;;23.90;62.30;;;;;;5942208;28;20079;-56
2022/10/27 09:43:58;;;;;;;1.98;0.80;;;23.90;62.00;;;;;;5956074;28;20166;-55
2022/10/27 09:47:01;;;;;;;2.20;0.82;;;23.90;62.30;;;;;;5941966;28;20053;-60
2022/10/27 09:50:06;;;;;;;1.25;0.93;;;23.90;61.90;;;;;;5938648;28;20046;-60
2022/10/27 09:53:39;;;;;;;1.52;0.77;;;24.00;62.40;;;;;;5951026;28;20084;-59
2022/10/27 09:56:43;;;;;;;1.33;0.90;;;23.80;62.40;;;;;;5913049;28;22060;-58
2022/10/27 09:59:54;;;;;;;1.73;0.93;;;24.00;62.40;;;;;;5955254;28;20231;-54
2022/10/27 10:03:00;;;;;;;0.93;0.80;;;23.50;62.10;;;;;;5921577;28;20055;-62
2022/10/27 10:06:05;;;;;;;1.92;1.00;;;24.00;62.50;;;;;;5902335;28;20057;-61
2022/10/27 10:09:20;;;;;;;1.63;0.80;;;23.90;62.50;;;;;;5896674;28;20053;-54
2022/10/27 10:12:24;;;;;;;2.25;0.70;;;23.90;62.50;;;;;;5935159;28;20045;-57
2022/10/27 10:15:27;;;;;;;1.15;0.60;;;24.00;62.60;;;;;;5959611;28;22371;-55
2022/10/27 10:18:29;;;;;;;0.98;0.80;;;24.00;62.70;;;;;;5973627;28;20045;-54
2022/10/27 10:21:47;;;;;;;0.70;0.50;;;23.90;62.50;;;;;;5964502;28;20164;-55
2022/10/27 10:24:49;;;;;;;1.13;0.73;;;24.00;62.90;;;;;;5980557;28;20041;-56
2022/10/27 10:27:57;;;;;;;2.65;0.73;;;24.10;62.70;;;;;;5983964;28;20044;-56
2022/10/27 10:31:02;;;;;;;1.33;0.77;;;24.00;63.40;;;;;;5987289;28;20590;-57
2022/10/27 10:34:07;;;;;;;1.52;0.80;;;23.60;63.20;;;;;;6033825;28;20239;-56
2022/10/27 10:37:31;;;;;;;1.73;0.88;;;23.90;63.30;;;;;;6015694;28;20628;-55
2022/10/27 10:40:34;;;;;;;1.10;0.52;;;24.00;63.60;;;;;;6008680;28;21051;-54
2022/10/27 10:43:35;;;;;;;1.40;0.82;;;23.90;63.60;;;;;;6042047;28;20041;-56
2022/10/27 10:46:40;;;;;;;0.80;0.50;;;24.50;64.00;;;;;;6033938;28;20135;-51
2022/10/27 10:49:48;;;;;;;3.65;0.80;;;23.90;63.60;;;;;;6050361;28;20540;-57
2022/10/27 10:52:53;;;;;;;1.05;0.88;;;24.10;63.80;;;;;;6024833;28;20115;-58
2022/10/27 10:55:57;;;;;;;1.45;0.75;;;24.00;63.80;;;;;;6041955;28;20052;-58
2022/10/27 10:59:07;;;;;;;1.23;0.80;;;24.10;64.00;;;;;;6031378;28;21592;-55
2022/10/27 11:02:22;;;;;;;1.33;0.63;;;24.20;64.20;;;;;;6022250;28;20982;-55
2022/10/27 11:05:29;;;;;;;2.50;0.90;;;23.90;64.10;;;;;;6035320;28;20049;-57
2022/10/27 11:08:37;;;;;;;1.25;0.70;;;24.30;64.20;;;;;;6061998;28;21006;-56
2022/10/27 11:11:49;;;;;;;1.55;0.82;;;24.10;64.30;;;;;;6049445;28;20081;-56
2022/10/27 11:14:52;;;;;;;1.23;0.80;;;23.90;64.30;;;;;;6071718;28;20045;-54
2022/10/27 11:17:59;;;;;;;2.50;1.10;;;24.00;64.40;;;;;;6038439;28;20207;-55
2022/10/27 11:21:06;;;;;;;2.78;0.95;;;24.50;64.70;;;;;;6032011;28;20056;-54
2022/10/27 11:24:14;;;;;;;3.20;1.00;;;24.00;64.50;;;;;;6051098;28;20089;-56
2022/10/27 11:27:20;;;;;;;2.42;1.13;;;24.00;64.60;;;;;;6083132;28;21330;-54
2022/10/27 11:30:24;;;;;;;2.58;1.17;;;24.00;64.70;;;;;;6034436;28;20061;-55
2022/10/27 11:33:36;;;;;;;3.70;1.02;;;24.20;64.90;;;;;;6014495;28;20042;-55
2022/10/27 11:36:40;;;;;;;;;;;24.30;65.00;;;;;;6027492;28;20053;-55
2022/10/27 11:39:48;;;;;;;1.55;0.90;;;24.30;64.90;;;;;;6021713;28;19937;-57
2022/10/27 11:42:57;;;;;;;4.38;1.25;;;24.20;65.20;;;;;;5996554;28;20163;-56
2022/10/27 11:46:05;;;;;;;2.58;1.50;;;23.90;65.20;;;;;;5992198;28;20037;-55
2022/10/27 11:49:16;;;;;;;4.22;1.35;;;24.30;65.40;;;;;;6012214;28;20038;-56
2022/10/27 11:52:21;;;;;;;2.15;1.02;;;24.20;65.50;;;;;;5996953;28;22174;-55
2022/10/27 11:55:32;;;;;;;1.35;0.80;;;24.20;65.40;;;;;;5985601;28;20240;-53
2022/10/27 11:58:43;;;;;;;2.42;1.15;;;24.40;65.50;;;;;;5997827;28;20407;-55
2022/10/27 12:02:00;;;;;;;2.08;0.70;;;24.30;65.20;;;;;;5971736;28;20103;-54
2022/10/27 12:05:09;;;;;;;1.42;0.90;;;24.40;65.40;;;;;;5964544;28;20046;-55
2022/10/27 12:08:21;;;;;;;2.22;0.88;;;24.50;65.50;;;;;;5970888;28;20088;-56
2022/10/27 12:11:35;;;;;;;1.38;0.68;;;24.20;65.30;;;;;;5953675;28;20127;-56
2022/10/27 12:14:47;;;;;;;1.27;0.70;;;24.40;65.50;;;;;;5956491;28;20042;-60
2022/10/27 12:17:55;;;;;;;1.42;0.80;;;24.20;65.40;;;;;;5954602;28;20120;-58
2022/10/27 12:21:03;;;;;;;1.00;0.65;;;24.30;65.40;;;;;;5981745;28;22191;-58
2022/10/27 12:24:10;;;;;;;1.13;0.73;;;23.80;65.00;;;;;;5998443;28;20067;-55
2022/10/27 12:27:17;;;;;;;0.80;0.50;;;24.30;65.40;;;;;;5946636;28;21673;-59
2022/10/27 12:30:20;;;;;;;1.10;0.90;;;24.30;65.50;;;;;;5957556;28;20049;-57
2022/10/27 12:33:28;;;;;;;1.70;0.80;;;24.00;65.20;;;;;;5934397;28;20046;-56
2022/10/27 12:36:39;;;;;;;1.23;0.70;;;24.30;65.40;;;;;;5963642;28;20481;-56
2022/10/27 12:39:49;;;;;;;0.93;0.57;;;24.30;65.40;;;;;;5946627;28;20046;-57
2022/10/27 12:43:01;;;;;;;1.45;0.90;;;24.20;65.20;;;;;;5952658;28;26143;-57
2022/10/27 12:46:14;;;;;;;3.22;1.35;;;24.30;65.40;;;;;;5942043;28;20049;-59
2022/10/27 12:49:24;;;;;;;1.25;0.65;;;23.90;65.00;;;;;;5956709;28;20149;-60
2022/10/27 12:52:29;;;;;;;0.65;0.55;;;24.10;64.90;;;;;;5959379;28;20045;-61
2022/10/27 12:55:45;;;;;;;1.73;0.77;;;24.30;65.10;;;;;;5942986;28;20038;-57
2022/10/27 12:58:52;;;;;;;1.00;0.70;;;24.20;65.00;;;;;;5880949;28;20677;-59
2022/10/27 13:01:56;;;;;;;1.80;0.80;;;24.00;64.70;;;;;;5907545;28;20057;-59
2022/10/27 13:05:25;;;;;;;1.55;0.73;;;24.40;65.00;;;;;;5898639;28;20168;-56
2022/10/27 13:08:44;;;;;;;1.23;0.70;;;24.60;64.70;;;;;;5881012;28;20793;-59
2022/10/27 13:12:09;;;;;;;1.55;0.70;;;24.30;64.70;;;;;;5906500;28;20046;-53
2022/10/27 13:15:38;;;;;;;1.00;0.70;;;24.50;64.60;;;;;;5942763;28;20038;-49
2022/10/27 13:19:05;;;;;;;1.20;0.70;;;24.70;64.50;;;;;;5898938;28;22533;-58
2022/10/27 13:22:13;;;;;;;1.52;0.90;;;24.50;64.40;;;;;;5900162;28;21464;-57
2022/10/27 13:25:20;;;;;;;1.15;0.80;;;24.30;64.00;;;;;;5933548;28;20050;-57
2022/10/27 13:28:30;;;;;;;1.73;1.20;;;24.50;64.00;;;;;;5946635;28;20077;-57
2022/10/27 13:31:32;;;;;;;1.85;1.23;;;24.40;63.80;;;;;;5917912;28;20052;-56
2022/10/27 13:34:34;;;;;;;1.60;0.90;;;24.30;63.70;;;;;;5934105;28;21104;-60
2022/10/27 13:37:39;;;;;;;1.42;1.00;;;23.80;63.50;;;;;;5928831;28;20049;-58
2022/10/27 13:40:43;;;;;;;1.27;0.80;;;24.00;63.30;;;;;;5942287;28;22129;-57
2022/10/27 13:43:45;;;;;;;1.40;0.80;;;24.40;63.40;;;;;;5952648;28;20048;-54
2022/10/27 13:47:09;;;;;;;1.23;0.90;;;24.30;63.40;;;;;;5942190;28;20050;-51
2022/10/27 13:50:35;;;;;;;0.90;0.82;;;24.30;63.20;;;;;;5922883;28;20058;-53
2022/10/27 13:53:37;;;;;;;1.38;0.63;;;24.70;63.50;;;;;;5950213;28;20135;-59
2022/10/27 13:56:39;;;;;;;0.85;0.70;;;24.00;63.00;;;;;;5985849;28;20037;-55
2022/10/27 13:59:43;;;;;;;2.15;1.05;;;24.70;63.30;;;;;;5939225;28;21546;-53
2022/10/27 14:02:57;;;;;;;1.20;0.75;;;24.30;63.00;;;;;;5931076;28;22521;-57
2022/10/27 14:05:59;;;;;;;1.17;0.68;;;24.70;63.00;;;;;;5935933;28;20045;-55
2022/10/27 14:09:19;;;;;;;1.00;0.60;;;24.70;62.90;;;;;;5966985;28;20820;-61
2022/10/27 14:12:31;;;;;;;1.70;0.85;;;24.90;63.00;;;;;;5944873;28;20048;-56
2022/10/27 14:15:33;;;;;;;1.27;0.82;;;24.60;62.90;;;;;;5974778;28;20242;-53
2022/10/27 14:18:37;;;;;;;2.50;0.75;;;24.70;62.90;;;;;;5957185;28;20125;-56
2022/10/27 14:21:41;;;;;;;1.77;0.82;;;24.50;62.90;;;;;;5931774;28;20653;-54
2022/10/27 14:24:47;;;;;;;1.45;0.88;;;24.70;62.90;;;;;;5990409;28;22143;-55
2022/10/27 14:28:02;;;;;;;1.15;0.80;;;24.40;62.80;;;;;;5957287;28;20672;-56
2022/10/27 14:31:08;;;;;;;1.55;0.90;;;24.20;62.90;;;;;;5956376;28;20148;-54
2022/10/27 14:34:16;;;;;;;2.15;1.35;;;24.60;63.00;;;;;;5951495;28;20045;-53
2022/10/27 14:37:19;;;;;;;1.30;1.02;;;24.10;62.80;;;;;;5952358;28;20453;-55
2022/10/27 14:40:22;;;;;;;1.45;1.10;;;24.60;62.90;;;;;;5966387;28;20046;-48
2022/10/27 14:43:25;;;;;;;1.40;0.80;;;24.50;63.40;;;;;;5932882;28;20046;-50
2022/10/27 14:46:38;;;;;;;1.30;0.82;;;24.40;63.30;;;;;;5949484;28;20047;-51
2022/10/27 14:49:46;;;;;;;1.02;0.80;;;24.50;63.30;;;;;;5947873;28;20288;-53
2022/10/27 14:52:53;;;;;;;1.27;0.73;;;24.50;63.30;;;;;;5967665;28;20073;-53
2022/10/27 14:56:04;;;;;;;1.23;0.70;;;24.40;63.10;;;;;;5983768;28;22425;-54
2022/10/27 14:59:18;;;;;;;0.77;0.55;;;24.20;63.00;;;;;;5947061;28;20257;-50
2022/10/27 15:02:21;;;;;;;1.33;0.65;;;24.50;63.40;;;;;;5936923;28;20163;-49
2022/10/27 15:05:24;;;;;;;0.82;0.50;;;24.40;63.40;;;;;;5985697;28;20080;-54
2022/10/27 15:08:35;;;;;;;3.22;0.70;;;24.50;63.60;;;;;;5965681;28;20048;-55
2022/10/27 15:11:36;;;;;;;0.98;0.50;;;24.40;63.50;;;;;;5975335;28;20142;-51
2022/10/27 15:14:39;;;;;;;1.00;0.60;;;23.90;63.30;;;;;;6014110;28;22281;-47
2022/10/27 15:17:41;;;;;;;1.27;0.73;;;24.50;63.60;;;;;;6017481;28;20048;-52
2022/10/27 15:20:43;;;;;;;3.70;1.10;;;24.10;63.40;;;;;;5997272;28;20065;-46
2022/10/27 15:23:47;;;;;;;3.00;1.10;;;24.50;63.70;;;;;;6028377;28;20049;-52
2022/10/27 15:26:50;;;;;;;3.25;1.70;;;24.20;63.10;;;;;;5989922;28;20476;-56
2022/10/27 15:29:54;;;;;;;1.75;1.27;;;24.50;62.80;;;;;;6010565;28;20034;-55
2022/10/27 15:32:56;;;;;;;1.17;0.90;;;24.50;62.80;;;;;;6017547;28;20049;-55
2022/10/27 15:36:10;;;;;;;1.05;0.93;;;24.10;77.10;;;;;;5993694;28;20046;-54
2022/10/27 15:39:11;;;;;;;1.90;0.82;;;24.30;62.80;;;;;;5970728;28;20049;-54
2022/10/27 15:42:17;;;;;;;1.25;1.00;;;24.30;62.80;;;;;;6022770;28;20046;-53
2022/10/27 15:45:30;;;;;;;1.20;0.80;;;24.20;62.80;;;;;;6027342;28;20045;-56
2022/10/27 15:48:35;;;;;;;1.45;1.00;;;24.20;63.00;;;;;;6014820;28;21037;-51
2022/10/27 15:51:45;;;;;;;1.50;0.80;;;24.30;63.00;;;;;;5999004;28;20056;-56
2022/10/27 15:54:51;;;;;;;0.90;0.80;;;23.80;63.00;;;;;;6024001;28;20045;-57
2022/10/27 15:57:52;;;;;;;1.27;0.88;;;24.50;63.60;;;;;;6045839;28;20135;-57
2022/10/27 16:01:02;;;;;;;1.73;0.80;;;24.30;63.50;;;;;;6029113;28;20048;-54
2022/10/27 16:04:05;;;;;;;1.17;0.75;;;24.00;63.40;;;;;;6034340;28;21208;-58
2022/10/27 16:07:29;;;;;;;0.75;0.52;;;23.90;63.40;;;;;;6037027;28;20161;-55
2022/10/27 16:10:30;;;;;;;1.10;0.73;;;24.20;63.70;;;;;;6032783;28;21679;-53
2022/10/27 16:13:32;;;;;;;0.88;0.60;;;24.30;63.90;;;;;;6066815;28;20041;-52
2022/10/27 16:16:36;;;;;;;0.52;0.50;;;23.80;63.60;;;;;;6077732;28;20044;-58